Terminal Aerodrome Forecast
Issued by NWS

Home | Current Version | Previous Version | Graphics & Text | Print | Product List | Glossary On
Versions: 1 2 3 4 5 6 7 8 9 10 11 12 13 14
000
FTUS43 KGRB 112300
TAFAUW
TAF
KAUW 112336Z 1200/1224 20007KT P6SM SCT035 BKN080
      TEMPO 1201/1204 BKN035
     FM120400 19004KT 6SM BR BKN025 BKN040
      TEMPO 1209/1213 4SM BR BKN006 BKN012
     FM121500 25007KT P6SM VCSH BKN035 BKN070
      TEMPO 1220/1224 4SM TSRA OVC020CB=

USA.gov is the U.S. government's official web portal to all federal, state and local government web resources and services.